Terminal Aerodrome Forecast
Issued by NWS

Home | Current Version | Previous Version | Text Only | Print | Product List | Glossary On
Versions: 1 2 3 4 5 6 7 8 9 10 11 12 13 14 15 16 17 18 19 20 21 22 23 24 25 26 27 28 29 30 31 32 33 34 35 36 37 38 39 40 41 42 43 44 45 46 47 48 49 50
556
FTUS43 KABR 221744 CCA
TAFMBG
TAF COR
KMBG 221744Z 2218/2318 34014G24KT P6SM -SN BKN015
      TEMPO 2218/2220 5SM -SN
     FM222100 32013G22KT P6SM SCT035
     FM222200 32010KT P6SM SKC
     FM230600 VRB03KT P6SM SKC
     FM231200 22006KT P6SM SKC=

USA.gov is the U.S. government's official web portal to all federal, state and local government web resources and services.